Date,TemperatureHighF,TemperatureAvgF,TemperatureLowF,DewpointHighF,DewpointAvgF,DewpointLowF,HumidityHigh,HumidityAvg,HumidityLow,PressureMaxIn,PressureMinIn,WindSpeedMaxMPH,WindSpeedAvgMPH,GustSpeedMaxMPH,PrecipitationSumIn
2013-1-7,41.1,31.4,23.5,29.5,25.2,21.5,92,79,62,30.40,30.22,5,0,0,0.00
2013-1-8,44.6,37.1,23.6,36.8,32.7,21.6,97,85,70,30.39,30.30,7,1,0,0.00
2013-1-9,46.2,38.7,27.2,42.7,35.4,25.5,96,88,76,30.38,30.03,8,1,0,0.00
2013-1-10,47.1,40.1,28.8,35.6,27.2,23.4,82,61,42,30.50,30.07,7,1,0,0.00
2013-1-11,32.5,29.2,26.7,26.4,23.8,22.5,87,80,72,30.49,30.44,0,0,0,0.00
2013-1-18,22.1,21.2,19.4,10.1,7.3,4.9,61,54,50,30.48,30.44,2,0,0,0.00
2013-1-21,30.0,28.1,25.1,25.8,17.5,7.5,93,67,40,30.10,29.74,4,0,0,0.00
2013-1-22,27.5,22.3,15.2,25.7,11.6,-1.1,93,66,37,30.07,29.72,8,1,0,0.00
2013-1-23,18.1,13.6,10.7,3.1,-1.7,-5.5,64,49,39,30.15,30.05,8,2,0,0.00
2013-1-24,19.7,15.2,6.5,-0.3,-3.1,-6.5,57,43,34,30.20,30.04,8,2,0,0.00
2013-1-25,24.1,17.8,10.5,15.6,1.3,-6.2,82,48,35,30.30,30.03,7,1,0,0.00
2013-1-26,23.6,18.3,14.6,15.7,12.6,10.1,86,79,57,30.03,29.96,5,0,0,0.00
2013-1-27,30.6,24.5,14.8,10.0,6.6,4.2,63,46,34,30.45,30.32,8,1,0,0.00
2013-1-28,33.5,25.7,14.0,30.9,17.1,5.9,95,71,37,30.45,29.98,3,0,0,0.00
2013-1-29,37.9,34.3,32.2,37.9,32.6,-99.9,100,99,95,30.18,29.97,2,0,0,0.00
2013-1-30,60.1,49.4,35.5,59.0,43.7,-99.9,100,99,87,30.15,29.55,12,2,16,0.00
2013-1-31,57.6,54.9,46.8,57.6,42.1,-99.9,100,94,70,29.55,29.08,17,5,20,0.00
2013-2-1,30.4,27.1,23.6,11.2,9.7,7.3,53,47,40,30.09,29.83,6,2,0,0.00
2013-2-2,31.9,26.4,21.0,26.4,4.3,-99.9,89,57,41,30.25,30.04,8,2,0,0.00
2013-2-3,34.9,28.7,25.7,26.1,-26.4,-99.9,89,82,67,30.04,29.68,6,1,0,0.00
2013-2-4,32.1,26.9,23.8,21.9,-9.4,-99.9,85,59,39,29.95,29.70,8,2,0,0.00
2013-2-5,29.3,25.6,23.8,27.5,18.1,11.1,93,73,57,30.02,29.90,4,0,0,0.00
2013-2-6,38.9,32.0,27.9,30.8,24.8,9.8,95,77,46,30.27,29.89,6,0,0,0.00
2013-2-7,27.9,24.6,21.6,20.5,10.5,7.9,77,55,45,30.48,30.27,3,0,0,0.00
2013-2-8,33.4,31.9,26.9,32.2,28.5,20.7,100,87,77,30.46,29.41,15,2,18,0.00
2013-2-10,28.2,24.0,20.3,26.7,-2.2,-99.9,100,98,94,30.38,30.36,0,0,0,0.00
2013-2-11,46.2,40.5,31.8,45.8,40.1,31.8,100,99,98,30.18,29.60,8,1,0,0.00
2013-2-12,44.1,37.9,30.3,41.0,31.6,25.9,99,80,56,29.89,29.60,7,1,0,0.00
2013-2-13,41.1,33.6,28.4,27.8,25.8,23.6,89,74,53,29.88,29.64,6,0,0,0.00
2013-2-14,42.5,33.2,24.4,34.1,27.7,22.4,95,82,48,30.02,29.67,6,0,0,0.00
2013-2-15,47.0,29.2,22.4,38.6,10.4,-99.9,97,90,68,30.04,30.01,7,0,0,0.00
2013-2-16,39.3,34.0,32.4,34.8,31.8,30.7,97,92,74,29.91,29.61,11,0,13,0.00
2013-2-17,33.4,24.2,18.6,32.1,17.6,4.3,95,77,48,29.65,29.31,12,4,16,0.00
2013-2-18,22.1,17.7,16.1,6.5,4.2,2.7,57,55,50,29.96,29.66,12,5,0,0.00
2013-2-20,37.0,34.6,32.2,20.7,17.4,13.5,52,49,45,29.66,29.63,8,4,0,0.00
2013-2-22,36.0,33.6,31.9,27.0,26.0,25.1,81,74,66,30.34,30.31,6,0,0,0.00
2013-2-23,39.3,35.1,30.1,37.2,30.7,26.3,96,84,69,30.32,29.81,10,1,14,0.00
2013-2-24,43.1,39.6,33.4,42.3,38.6,32.4,97,96,94,29.81,29.56,14,2,16,0.00
2013-2-25,42.5,35.4,29.1,35.8,29.1,25.9,95,79,59,30.24,30.04,8,0,12,0.00
2013-2-26,45.5,35.0,25.7,34.8,28.2,24.2,96,78,47,30.32,30.11,7,0,0,0.00
2013-2-27,41.6,39.6,38.8,40.5,36.4,34.7,96,88,85,30.11,29.74,11,3,16,0.02
2013-3-1,43.5,38.3,35.6,36.5,35.0,32.9,97,88,70,29.59,29.49,7,0,0,0.00
2013-3-4,44.2,40.7,34.7,26.2,25.3,24.0,68,55,47,29.69,29.55,6,3,0,0.00
2013-3-5,34.9,34.3,34.0,25.6,25.1,24.9,70,69,68,29.71,29.69,5,1,0,0.00
2013-3-8,34.1,33.6,33.1,32.8,32.3,31.8,95,95,95,29.89,29.84,18,4,21,0.00
2013-3-9,40.2,37.0,27.8,32.3,30.4,25.9,93,77,72,30.29,30.16,16,3,18,0.00
2013-3-10,45.1,36.6,27.3,34.2,30.9,25.5,96,81,62,30.38,30.30,8,1,0,0.00
2013-3-19,34.3,33.6,33.1,33.0,32.1,31.3,95,94,93,29.64,29.61,6,3,0,0.00
2013-3-20,42.9,35.2,29.7,31.3,24.8,20.1,93,67,41,29.77,29.64,11,3,13,0.15
2013-3-21,38.5,33.2,30.7,29.4,27.9,25.4,95,82,60,29.63,29.56,10,1,16,0.00
2013-3-22,39.9,33.9,26.7,30.7,26.0,20.8,95,75,49,29.74,29.58,8,1,0,0.29
2013-3-23,44.3,37.2,30.6,27.8,22.8,18.8,75,57,37,29.75,29.64,11,2,13,0.00
2013-3-25,42.2,41.7,41.5,29.5,29.4,28.9,62,61,60,29.47,29.45,17,6,19,0.00
2013-3-26,50.2,41.8,35.3,34.2,30.3,23.8,85,66,37,29.76,29.65,6,0,0,0.03
2013-3-27,53.1,41.6,27.8,34.5,28.1,22.4,83,60,36,29.84,29.72,8,0,0,0.00
2013-3-28,49.4,41.6,37.5,38.8,33.8,26.7,94,75,42,30.01,29.82,9,0,0,0.04
2013-3-29,58.6,45.0,35.5,38.8,35.0,31.5,86,70,44,30.03,29.98,7,0,0,0.00
2013-3-30,57.2,46.6,41.1,34.9,33.3,27.8,75,62,34,30.06,30.01,6,0,0,0.00
2013-4-1,55.3,47.7,36.3,46.5,39.9,18.0,92,75,50,29.78,29.58,12,2,13,0.22
2013-4-2,42.8,36.6,30.7,24.1,17.3,9.0,58,46,29,29.97,29.78,18,2,18,0.00
2013-4-3,46.2,38.4,31.6,19.2,16.1,12.9,54,41,28,30.15,29.95,12,3,12,0.00
2013-4-4,46.4,38.5,30.3,34.2,23.3,15.0,82,55,36,30.30,30.10,10,2,0,0.00
2013-4-5,51.7,43.2,39.2,43.6,37.3,30.9,93,80,65,30.10,29.64,9,0,0,0.06
2013-4-6,47.6,39.6,33.8,30.9,20.4,4.7,80,50,20,30.34,29.84,8,1,0,0.00
2013-4-7,54.2,41.4,26.0,42.7,31.4,21.3,93,71,29,30.33,30.06,8,1,12,0.00
2013-4-8,64.7,52.0,43.9,46.5,43.3,39.1,89,74,48,30.12,29.98,7,0,0,0.00
2013-4-9,65.6,52.6,45.1,50.8,45.7,40.0,96,78,51,30.10,29.85,11,1,0,0.00
2013-4-10,62.0,50.3,44.8,50.5,44.7,41.8,95,82,59,30.00,29.84,7,0,0,0.30
2013-4-11,52.8,46.9,44.2,45.4,41.1,33.9,97,81,55,30.11,29.79,11,1,13,0.03
2013-4-12,44.2,41.9,38.2,40.8,35.8,27.8,96,80,56,30.13,29.67,14,2,17,0.70
2013-4-13,52.2,42.5,38.6,41.0,38.5,36.2,96,86,61,29.94,29.66,13,1,19,0.05
2013-4-14,53.8,46.4,38.5,43.6,37.3,28.9,95,72,42,30.20,29.93,7,0,0,0.00
2013-4-15,56.0,45.0,35.5,40.5,35.1,29.3,92,69,47,30.42,30.19,6,0,0,0.00
2013-4-16,60.9,48.6,33.5,48.9,41.1,32.0,97,77,48,30.41,30.13,10,1,0,0.00
2013-4-17,66.6,52.1,38.0,53.1,43.8,34.8,96,76,39,30.33,30.09,11,1,12,0.03
2013-4-18,58.9,47.6,34.7,47.6,38.3,32.9,95,73,47,30.41,30.17,8,0,13,0.00
2013-4-19,71.8,61.5,51.6,63.2,57.9,47.6,96,89,70,30.17,29.75,12,2,19,0.01
2013-4-20,63.1,52.8,42.8,61.1,48.3,35.7,98,85,66,30.18,29.68,14,2,19,0.19
2013-4-21,51.7,43.3,32.9,35.8,27.0,22.7,79,54,36,30.67,30.18,7,1,0,0.00
2013-4-22,53.8,41.8,31.3,37.3,31.4,25.5,90,68,36,30.70,30.53,12,1,17,0.00
2013-4-23,45.7,43.0,40.9,43.8,40.2,33.3,95,90,74,30.53,30.25,7,1,13,0.04
2013-4-24,58.3,52.4,48.5,49.2,46.3,43.9,93,80,67,29.97,29.89,10,2,0,0.25
2013-4-25,61.5,52.3,39.1,53.2,44.0,36.2,94,75,43,30.24,29.90,11,1,12,0.04
2013-4-26,62.0,48.4,35.6,42.9,38.8,33.8,95,73,42,30.41,30.24,7,0,0,0.00
2013-4-27,62.6,48.8,36.6,46.1,36.1,25.6,96,67,27,30.41,30.32,6,0,0,0.00
2013-4-28,65.6,50.8,36.0,47.6,40.0,32.1,95,70,30,30.35,30.27,5,0,0,0.00
2013-4-29,66.3,51.5,41.1,48.9,38.0,25.1,95,66,25,30.29,30.24,5,0,0,0.00
2013-4-30,66.3,47.7,36.3,43.2,36.2,24.5,95,71,22,30.33,30.25,5,0,0,0.00
2013-5-15,64.3,58.7,53.6,55.1,47.8,35.8,90,69,38,30.06,29.69,10,1,12,0.03
2013-5-16,72.1,61.9,52.5,53.8,50.8,46.8,95,69,41,29.74,29.65,10,1,12,0.00
2013-5-18,68.6,67.4,64.7,52.1,49.8,46.9,60,53,47,30.28,30.28,5,1,0,0.00
2013-5-24,65.0,63.1,62.3,64.1,62.2,61.4,98,97,97,29.75,29.67,10,1,17,0.76
2013-5-30,82.2,71.3,63.1,70.0,63.5,58.9,88,77,64,30.09,30.02,6,0,0,0.14
2013-5-31,88.6,72.1,59.5,69.2,62.7,57.3,94,74,50,30.09,29.99,6,0,0,0.00
2013-6-1,80.1,68.4,61.3,67.6,62.0,58.3,93,81,61,30.00,29.94,7,0,0,0.00
2013-6-2,76.3,67.1,61.8,66.1,62.4,59.4,93,85,68,29.96,29.84,7,1,0,0.00
2013-6-3,65.5,63.3,61.3,64.6,62.4,60.7,98,97,93,29.86,29.79,6,0,0,2.22
2013-6-4,72.5,62.6,52.8,61.4,51.0,44.2,98,69,42,30.06,29.79,5,0,0,0.00
2013-6-5,73.2,60.2,46.2,53.1,49.1,44.3,95,70,40,30.18,30.06,6,0,0,0.00
2013-6-6,74.6,61.8,49.6,60.2,53.0,47.7,96,75,46,30.19,30.08,7,0,0,0.00
2013-6-7,68.1,59.1,57.3,67.5,57.1,52.3,98,93,80,30.09,29.73,8,0,18,1.41
2013-6-8,68.9,65.0,59.6,68.0,62.3,58.1,98,91,76,30.00,29.53,10,1,13,0.24
2013-6-9,76.0,66.9,56.7,62.3,59.4,55.6,98,78,56,30.16,30.00,7,0,0,0.00
2013-6-10,73.9,63.3,57.0,62.0,58.7,55.3,96,86,59,30.18,29.98,5,0,0,0.61
2013-6-11,72.3,64.8,57.2,67.2,62.9,56.1,98,94,81,29.97,29.53,7,0,0,0.98
2013-6-12,72.3,63.1,55.3,58.5,56.5,54.2,98,80,60,29.79,29.55,6,0,0,0.01
2013-6-13,67.1,59.2,53.5,59.6,55.1,51.8,96,87,67,29.81,29.57,6,0,0,0.23
2013-6-14,63.1,57.0,52.2,57.2,53.0,50.0,96,87,68,29.74,29.52,11,1,14,0.71
2013-6-15,79.8,67.4,58.6,58.2,54.8,44.6,91,67,32,29.95,29.73,7,0,0,0.00
2013-6-16,77.4,66.8,57.8,61.8,58.3,51.5,97,76,42,29.95,29.76,11,0,0,0.00
2013-6-17,81.1,69.5,62.1,66.9,63.0,60.5,95,81,59,29.91,29.78,6,0,0,0.01
2013-6-18,83.4,67.4,58.7,68.9,61.3,57.0,97,82,54,29.91,29.84,5,0,0,0.02
2013-6-19,74.9,64.2,56.7,59.2,54.0,47.3,95,72,46,30.15,29.83,8,0,0,0.02
2013-6-20,77.9,64.6,52.6,61.4,54.9,48.9,97,73,48,30.28,30.15,3,0,0,0.00
2013-6-21,75.3,66.8,57.2,58.6,54.6,51.1,85,66,50,30.28,30.23,6,0,0,0.00
2013-6-22,76.3,68.4,62.4,62.9,59.3,54.4,93,74,49,30.25,30.16,5,0,0,0.00
2013-6-23,79.8,71.0,63.5,67.9,65.3,61.7,95,83,64,30.19,30.06,5,0,0,0.00
2013-6-24,81.1,72.5,67.3,72.6,68.3,65.3,97,87,74,30.06,29.89,7,0,0,0.00
2013-6-25,82.8,73.9,67.8,70.1,66.9,64.5,92,79,62,29.91,29.75,5,0,0,0.00
2013-6-26,85.7,74.7,69.1,73.2,68.6,66.3,95,82,62,29.83,29.72,6,0,0,0.04
2013-6-27,79.8,70.4,66.8,71.6,67.6,65.6,97,91,75,29.83,29.74,6,0,0,0.00
2013-6-28,73.0,70.1,68.4,72.1,69.0,66.9,97,96,94,29.74,29.55,7,0,0,0.40
2013-6-29,70.3,69.6,69.1,69.4,68.7,68.2,98,97,97,29.58,29.53,4,0,0,0.05
2013-7-1,77.0,73.1,71.5,72.8,70.4,69.3,93,91,85,30.11,30.03,4,0,0,0.30
2013-7-2,78.8,73.7,70.9,74.9,70.9,68.8,96,91,83,30.21,30.10,5,0,0,0.03
2013-7-3,79.0,73.7,70.3,72.8,70.8,69.2,97,91,80,30.24,30.18,6,0,0,0.00
2013-7-4,81.2,74.4,70.3,74.7,71.5,69.4,98,91,78,30.22,30.14,7,0,0,0.00
2013-7-5,84.5,76.3,70.8,75.4,71.5,69.0,95,86,73,30.17,30.08,5,0,0,0.00
2013-7-6,84.5,76.7,71.1,75.4,71.6,69.2,94,85,73,30.09,29.97,4,0,0,0.00
2013-7-7,91.0,78.7,70.3,77.8,72.4,68.5,96,82,60,30.02,29.92,4,0,0,0.00
2013-7-8,81.6,76.1,71.5,72.4,70.4,68.6,95,83,69,30.03,29.92,7,0,0,0.00
2013-7-9,78.8,73.1,68.9,72.2,69.4,66.8,94,88,77,30.08,30.01,0,0,0,0.00
2013-7-10,83.0,75.7,70.6,75.0,72.4,68.5,96,90,72,30.06,29.82,4,0,0,0.01
2013-7-11,75.4,73.2,70.9,73.2,71.5,69.7,97,95,89,29.89,29.80,3,0,0,0.22
2013-7-12,73.9,69.9,66.6,70.0,67.0,63.2,97,91,80,30.16,29.89,6,0,0,0.00
2013-7-13,81.6,72.1,67.6,74.1,69.5,65.5,97,92,76,30.30,30.16,3,0,0,0.03
2013-7-14,85.3,76.7,71.5,77.2,73.2,70.3,97,89,74,30.29,30.19,2,0,0,0.05
2013-7-15,91.8,79.9,72.5,78.8,74.0,71.1,97,84,61,30.19,30.09,1,0,0,0.01
2013-7-16,92.7,80.2,71.8,74.9,71.1,68.2,95,76,50,30.14,30.07,2,0,0,0.00
2013-7-17,89.7,77.7,68.1,74.4,69.4,64.7,95,77,51,30.17,30.04,1,0,0,0.00
2013-7-18,92.5,80.4,74.2,79.3,73.2,70.9,93,80,57,30.04,29.96,6,0,0,0.00
2013-7-19,89.5,80.3,74.2,78.6,75.1,72.0,95,85,68,29.95,29.77,7,0,0,0.00
2013-7-20,86.1,79.2,74.9,76.2,73.9,72.1,92,84,70,29.79,29.68,7,0,0,0.00
2013-7-21,75.3,71.3,68.8,70.1,68.2,66.8,94,90,83,29.98,29.92,0,0,0,0.41
2013-7-22,82.2,73.6,68.8,71.3,69.2,67.0,95,87,65,29.99,29.86,3,0,0,0.00
2013-7-23,84.1,76.8,72.1,76.5,73.5,70.6,96,90,76,29.86,29.55,7,0,0,0.00
2013-7-24,87.0,77.7,70.9,75.4,71.3,63.4,95,82,62,29.89,29.57,2,0,0,0.00
2013-7-25,71.8,65.3,62.0,64.2,60.2,57.1,94,84,73,30.03,29.89,7,0,0,0.09
2013-7-26,68.3,66.0,63.1,67.4,64.8,61.6,97,96,94,30.02,29.86,7,0,0,0.62
2013-7-27,79.8,72.1,65.5,72.0,67.6,64.1,97,86,67,30.07,30.00,4,0,0,0.00
2013-7-28,80.7,73.8,69.8,76.3,70.9,68.3,97,91,75,30.02,29.93,0,0,0,0.22
2013-7-29,81.8,74.0,67.8,74.0,70.3,66.3,97,89,72,30.03,29.98,1,0,0,0.00
2013-7-30,82.8,73.1,65.6,69.1,65.1,60.7,95,78,51,30.08,30.01,2,0,0,0.00
2013-7-31,83.6,70.7,62.1,68.4,62.4,59.5,94,77,47,30.11,30.05,2,0,0,0.00
2013-8-1,82.0,70.4,62.0,69.1,64.5,60.3,96,83,58,30.06,29.89,2,0,0,0.05
2013-8-2,78.8,70.8,64.8,73.3,67.1,63.1,97,89,75,29.89,29.79,5,0,0,0.13
2013-8-3,73.2,70.5,68.1,68.4,66.3,64.2,93,87,76,29.89,29.80,4,0,0,0.01
2013-8-4,80.5,69.2,59.2,66.1,61.4,56.3,93,78,49,29.86,29.76,4,0,0,0.04
2013-8-5,76.0,66.0,55.3,59.8,55.3,48.2,95,71,41,30.03,29.86,2,0,0,0.00
2013-8-6,80.5,65.1,52.2,60.9,53.9,47.6,94,71,34,30.16,30.02,3,0,0,0.00
2013-8-7,79.8,65.6,54.5,64.9,55.3,50.6,95,73,39,30.18,30.14,5,0,0,0.00
2013-8-8,78.1,70.7,60.7,70.3,65.6,55.2,93,84,71,30.14,30.05,5,0,0,0.01
2013-8-9,75.4,73.1,71.6,73.0,71.0,69.0,97,93,88,30.07,29.79,12,0,12,0.26
2013-8-10,83.4,73.7,67.1,71.1,66.8,56.5,97,80,50,30.00,29.79,6,0,0,0.00
2013-8-11,81.1,69.1,58.7,61.2,56.9,52.0,92,67,41,30.07,29.99,5,0,0,0.00
2013-8-12,76.1,69.5,63.5,69.4,64.8,60.4,95,85,75,30.04,29.92,0,0,0,0.00
2013-8-13,72.0,68.3,64.5,69.0,66.4,63.0,96,94,86,29.93,29.67,1,0,0,0.10
2013-8-14,75.1,68.5,63.7,66.0,58.6,53.5,97,73,50,29.94,29.65,6,0,0,0.00
2013-8-15,78.5,67.1,58.9,58.5,55.0,48.8,84,67,39,30.12,29.94,4,0,0,0.00
2013-8-16,82.2,69.1,58.0,64.3,58.6,49.3,94,72,38,30.20,30.10,5,0,0,0.00
2013-8-17,83.0,68.7,59.0,64.9,60.4,55.9,95,77,42,30.27,30.19,2,0,0,0.00
2013-8-18,77.4,66.5,58.1,66.2,61.0,55.8,95,84,56,30.27,30.08,1,0,0,0.11
2013-8-19,79.8,68.5,57.3,68.9,63.6,55.9,97,85,63,30.08,29.95,3,0,0,0.02
2013-8-20,84.1,73.6,65.3,70.9,65.8,62.9,95,78,59,30.09,29.97,1,0,0,0.00
2013-8-21,86.5,74.2,65.2,69.4,66.1,63.4,96,78,51,30.14,30.05,3,0,0,0.00
2013-8-22,78.6,73.1,69.8,72.0,69.5,67.2,95,89,76,30.05,29.84,4,0,0,0.00
2013-8-23,77.9,71.1,61.0,69.7,62.0,54.1,96,75,50,30.08,29.81,7,0,12,0.00
2013-8-24,76.3,64.6,50.4,58.7,52.9,45.7,90,68,39,30.32,30.08,8,0,0,0.00
2013-8-25,82.4,65.7,49.6,62.9,55.0,45.0,96,71,35,30.35,30.21,4,0,0,0.00
2013-8-26,75.8,70.1,67.1,67.2,64.1,59.3,92,82,67,30.21,29.90,10,0,0,0.00
2013-8-27,73.2,69.9,67.4,71.2,68.2,65.9,97,95,88,29.90,29.82,2,0,0,0.73
2013-8-28,82.0,71.3,66.1,71.2,67.2,64.3,97,88,66,29.93,29.84,5,0,0,0.00
2013-8-29,67.9,65.3,58.6,65.3,62.6,56.6,95,91,85,30.02,29.92,5,0,0,0.00
2013-8-30,71.6,65.6,55.9,66.9,62.3,54.2,96,89,79,30.00,29.85,5,0,0,0.00
2013-8-31,74.4,71.3,68.4,70.0,68.8,66.9,95,92,85,29.86,29.83,6,0,0,0.00
2013-9-1,76.8,72.6,70.3,73.4,69.0,-99.9,97,94,87,29.89,29.83,3,0,0,0.19
2013-9-2,80.3,74.0,71.5,74.9,72.0,70.6,97,94,82,29.88,29.72,4,0,0,0.07
2013-9-3,79.0,72.0,69.6,74.4,70.8,69.0,98,96,81,29.78,29.69,0,0,0,0.04
2013-9-6,71.1,62.5,51.6,54.8,51.2,46.4,92,68,44,30.22,30.10,3,0,0,0.04
2013-9-7,72.5,64.4,51.9,60.9,55.1,49.6,93,73,57,30.10,29.88,6,0,0,0.03
2013-9-8,77.4,67.3,54.7,66.5,58.1,43.8,90,73,47,30.07,29.74,5,0,0,0.04
2013-9-9,70.1,58.4,49.4,55.0,48.9,43.7,92,72,45,30.23,30.07,3,0,0,0.02
2013-9-10,73.0,65.7,57.0,67.0,61.2,54.3,94,86,73,30.18,30.06,3,0,0,0.02
2013-9-11,83.4,73.6,69.1,74.1,69.5,66.9,95,87,72,30.10,30.00,4,0,0,0.03
2013-9-12,79.2,73.2,69.9,72.3,69.4,67.7,95,88,77,30.02,29.71,7,0,0,0.02
2013-9-13,75.3,70.5,63.1,71.0,67.0,59.0,96,89,77,29.71,29.56,3,0,0,0.02
2013-9-14,71.8,64.0,58.4,60.3,56.6,51.9,87,77,62,30.04,29.71,4,0,0,0.01
2013-9-15,69.6,59.8,50.5,56.3,52.8,48.6,96,79,58,30.16,30.04,2,0,0,0.01
2013-9-16,64.7,61.1,53.2,59.4,55.9,44.3,95,83,70,30.17,30.01,2,0,0,0.01
2013-9-17,60.1,52.0,41.3,45.1,42.1,38.9,92,70,52,30.37,30.17,8,0,0,0.01
2013-9-18,70.8,55.5,41.2,55.2,46.7,38.8,97,75,37,30.32,30.14,2,0,0,0.01
2013-9-19,74.4,63.8,57.0,59.2,55.9,51.5,89,76,52,30.15,30.05,3,0,0,0.01
2013-9-20,77.7,63.4,54.5,63.2,56.5,52.3,98,80,49,30.08,30.01,1,0,0,0.01
2013-9-21,77.2,65.2,52.5,66.0,60.1,50.8,97,85,63,30.04,29.76,10,0,0,0.01
2013-9-22,70.8,66.3,56.3,67.1,61.6,49.4,97,85,70,29.79,29.65,6,0,0,0.01
2013-9-23,63.2,55.1,49.2,49.6,45.6,-99.9,89,72,54,29.98,29.79,5,0,0,0.00
2013-9-24,61.5,53.5,46.4,50.3,45.3,41.1,89,74,56,29.98,29.81,3,0,0,0.01
2013-9-25,66.8,54.4,44.6,52.7,47.5,42.7,96,79,55,29.96,29.87,5,0,0,0.01
2013-9-26,61.5,55.6,49.2,51.5,49.5,46.3,93,81,64,30.09,29.96,5,0,0,0.00
2013-9-27,64.8,57.1,47.7,55.6,51.9,45.8,93,83,70,30.24,30.09,7,0,0,0.01
2013-9-28,74.2,59.2,47.0,59.4,18.2,-99.9,97,80,56,30.29,30.22,5,0,0,0.00
2013-9-29,69.4,60.3,45.2,54.5,-37.8,-99.9,95,74,48,30.24,30.08,3,0,0,0.00
2013-9-30,70.3,59.8,48.9,58.0,-15.4,-99.9,97,81,63,30.08,29.95,6,0,0,0.01
2013-10-1,73.2,59.2,48.6,58.3,51.2,-99.9,96,82,52,29.94,29.84,0,0,0,0.03
2013-10-2,76.0,65.6,55.1,63.6,50.5,-99.9,97,81,61,29.94,29.82,6,0,0,0.00
2013-10-3,79.6,64.9,56.2,58.0,45.9,-99.9,93,73,34,30.07,29.94,0,0,0,0.00
2013-10-4,72.7,60.3,52.8,63.2,49.1,-99.9,96,86,67,30.06,30.01,2,0,0,0.00
2013-10-5,67.3,61.2,56.7,62.6,56.8,-99.9,96,91,75,30.10,30.03,2,0,0,0.00
2013-10-6,62.6,59.2,56.3,60.6,56.7,-99.9,97,93,78,30.19,30.10,2,0,0,0.00
2013-10-7,75.3,68.8,62.6,70.8,60.8,-99.9,97,93,85,30.11,29.86,6,0,0,0.00
2013-10-8,68.1,58.8,47.4,65.6,50.7,45.1,95,76,49,30.33,29.88,3,0,0,0.00
2013-10-9,64.3,52.6,44.8,49.6,46.0,42.9,95,80,57,30.40,30.32,7,0,0,0.00
2013-10-10,68.4,57.8,48.5,58.3,53.4,45.4,93,86,69,30.32,30.11,7,0,0,0.00
2013-10-11,67.6,59.7,52.0,59.6,56.1,50.3,95,88,74,30.11,30.05,10,0,0,0.00
2013-10-12,69.8,58.5,51.7,57.8,53.0,49.6,94,83,59,30.34,30.10,7,0,0,0.00
2013-10-13,62.9,52.9,41.5,50.0,46.5,39.6,93,80,60,30.40,30.31,7,0,0,0.00
2013-10-14,64.3,49.1,39.2,50.5,44.0,37.7,97,84,57,30.39,30.26,2,0,0,0.00
2013-10-15,66.9,49.6,42.1,53.7,44.8,40.8,97,86,48,30.26,30.20,3,0,0,0.00
2013-10-19,62.9,58.4,56.3,54.2,48.8,45.2,92,71,54,29.91,29.76,3,0,0,0.00
2013-10-20,61.5,55.8,42.3,58.1,44.8,35.5,97,69,39,30.01,29.70,6,0,0,0.00
2013-10-21,63.1,50.4,38.2,47.3,42.4,36.2,96,76,43,30.11,30.01,2,0,0,0.00
2013-10-22,65.5,56.7,44.2,56.9,-10.3,-99.9,98,82,64,30.01,29.71,0,0,0,0.01
2013-10-23,64.3,64.3,64.3,-99.9,-99.9,-99.9,75,75,75,29.78,29.69,0,0,0,0.00
2013-11-1,41.3,41.3,41.3,-99.9,-99.9,-99.9,38,38,38,29.65,29.57,1,1,0,0.00
2013-11-6,41.3,41.3,41.3,-99.9,-99.9,-99.9,38,38,38,30.12,30.12,1,1,0,0.00
2013-11-18,60.7,58.4,58.1,51.3,-70.9,-99.9,74,73,69,29.65,29.58,8,0,0,0.00
2013-11-19,58.1,50.6,42.8,27.3,-80.1,-99.9,74,59,40,30.25,29.65,6,0,0,0.00
2013-11-20,42.8,40.7,34.6,22.5,-74.5,-99.9,55,45,37,30.51,30.25,5,0,0,0.00
2013-11-21,46.4,45.3,41.3,32.8,-3.7,-99.9,61,57,38,30.53,30.48,2,0,0,0.02
2013-11-22,41.3,41.3,41.3,-99.9,-99.9,-99.9,38,38,38,29.97,29.81,1,1,0,0.00
2013-11-23,48.2,44.5,41.3,33.2,-83.6,-99.9,70,45,38,29.86,29.77,6,1,0,0.00
2013-11-24,47.0,34.7,25.6,11.8,-84.8,-99.9,55,42,37,30.16,29.78,8,1,6,0.00
2013-11-25,32.1,29.0,21.6,3.7,-86.6,-99.9,42,33,26,30.36,30.16,5,1,0,0.00
2013-11-26,31.8,31.8,31.8,-99.9,-99.9,-99.9,27,27,27,30.32,30.02,2,2,0,0.00
2013-11-27,31.8,31.8,31.8,-99.9,-99.9,-99.9,27,27,27,30.02,29.28,2,2,0,0.00
2013-12-3,52.2,40.1,35.0,41.7,34.7,32.1,90,82,62,29.92,29.79,5,0,0,0.00
2013-12-4,44.8,37.3,29.4,34.5,30.8,27.6,94,78,58,30.19,30.07,3,0,0,0.00
2013-12-5,56.5,44.6,29.1,55.7,42.6,27.6,98,93,84,30.20,29.94,7,0,0,0.00
2013-12-6,56.9,55.7,53.3,56.3,55.0,52.5,98,97,97,29.94,29.88,7,1,0,0.01
2013-12-7,38.0,38.0,38.0,36.7,36.7,36.7,95,95,95,30.03,30.03,0,0,0,0.00
2013-12-9,45.5,41.9,37.0,44.7,41.1,36.0,98,97,96,29.91,29.88,6,1,0,0.32
2013-12-10,37.0,33.2,26.1,36.0,31.8,22.2,97,95,84,30.01,29.76,4,0,0,0.00
2013-12-11,33.5,29.0,25.6,23.9,20.3,-99.9,88,74,60,30.24,30.01,8,1,0,0.00
2013-12-12,41.3,24.1,19.2,19.8,-8.2,-99.9,74,60,37,30.25,30.09,7,1,0,0.00
2013-12-13,31.8,26.4,21.4,16.9,2.1,-99.9,68,60,50,30.32,30.01,10,2,0,0.00
2013-12-14,32.1,23.3,16.5,30.6,-5.2,-99.9,95,76,58,30.56,30.10,8,0,0,0.00
2013-12-15,48.6,35.2,29.0,48.1,33.1,22.1,98,92,72,30.08,29.30,13,2,17,0.06
2013-12-16,31.9,29.0,23.2,24.9,17.9,10.4,80,64,42,30.20,29.76,7,1,0,0.00
2013-12-17,37.3,25.0,13.5,36.3,18.9,7.9,96,78,52,30.25,29.85,6,0,0,0.01
2013-12-18,34.1,29.4,22.1,28.8,23.9,20.1,95,80,62,30.10,29.75,7,1,0,0.00
2013-12-19,44.1,36.6,29.5,36.7,30.1,22.9,88,77,68,30.12,29.98,8,1,0,0.02
2013-12-20,52.2,40.5,29.8,44.8,36.3,28.0,96,85,67,30.13,29.97,10,1,0,0.01
2013-12-21,56.3,53.1,48.0,53.0,49.6,45.8,93,88,79,30.01,29.91,10,2,0,0.00
2013-12-22,59.2,54.9,49.4,57.8,53.3,47.2,97,94,83,29.99,29.84,12,2,0,0.00
2013-12-23,57.0,44.5,37.2,54.0,43.1,36.2,97,95,88,30.05,29.92,6,0,0,0.01
2013-12-24,39.3,32.8,28.7,38.5,26.4,20.3,97,77,67,30.18,29.99,7,0,0,0.01
2013-12-25,28.7,21.8,16.4,22.1,10.8,4.4,81,62,47,30.55,30.18,6,1,0,0.00
2013-12-26,39.6,31.2,19.7,36.7,27.5,14.0,95,86,77,30.49,30.04,5,0,0,0.13
2013-12-27,35.9,31.2,27.6,25.5,23.2,20.9,84,72,57,30.27,30.20,4,0,0,0.00
2013-12-28,46.5,38.7,29.7,37.6,32.2,23.9,92,78,62,30.25,30.02,10,1,0,0.00
2013-12-29,55.9,44.1,38.8,55.3,41.1,35.2,98,89,79,30.05,29.28,7,1,0,0.83
2013-12-30,42.6,36.1,24.8,39.1,30.4,16.1,97,81,58,30.12,29.44,5,1,0,0.00
2013-12-31,27.6,24.2,19.9,19.7,13.1,5.9,74,62,50,30.17,30.03,6,0,0,0.00
2014-1-1,30.1,25.2,22.1,15.5,11.8,7.4,71,57,43,30.37,30.17,8,1,0,0.00
2014-1-2,31.8,27.7,24.5,30.0,24.1,11.9,93,87,56,30.33,29.64,14,2,14,0.00